TFKFI BIRK-BIRK
Flight info
| Callsign | TFKFI |
|---|---|
| Flight time | 0h 30m |
| Altitude | 7000 |
| Route | EL DCT TABIT |
| Aircraft | DA42/L-SBDGRY/S |
Departure
| Time | 2026-04-23 23:42 |
|---|---|
| Airport | Reykjavík Domestic Airport (BIRK) |
Arrival
| Time | 2026-04-24 00:13 |
|---|---|
| Airport | Reykjavík Domestic Airport (BIRK) |
| Time | Latitude | Longitude | Altitude | Speed | Heading |
|---|---|---|---|---|---|
| 2026-04-23 23:39 | 64.12800 | -21.93440 | 48 ft | 0 kts | 296° |
| 2026-04-23 23:41 | 64.12801 | -21.93449 | 48 ft | 0 kts | 294° |
| 2026-04-23 23:41 | 64.12802 | -21.93451 | 48 ft | 2 kts | 294° |
| 2026-04-23 23:42 | 64.12909 | -21.93949 | 60 ft | 67 kts | 290° |
| 2026-04-23 23:42 | 64.13130 | -21.94970 | 277 ft | 80 kts | 294° |
| 2026-04-23 23:42 | 64.13415 | -21.96159 | 456 ft | 90 kts | 298° |
| 2026-04-23 23:42 | 64.13752 | -21.97414 | 653 ft | 94 kts | 298° |
| 2026-04-23 23:43 | 64.14095 | -21.98706 | 856 ft | 96 kts | 298° |
| 2026-04-23 23:43 | 64.14449 | -22.00010 | 1061 ft | 98 kts | 299° |
| 2026-04-23 23:43 | 64.14811 | -22.01330 | 1268 ft | 103 kts | 298° |
| 2026-04-23 23:43 | 64.15053 | -22.02282 | 1405 ft | 105 kts | 298° |
| 2026-04-23 23:44 | 64.15424 | -22.03734 | 1614 ft | 107 kts | 298° |
| 2026-04-23 23:44 | 64.15716 | -22.05300 | 1815 ft | 107 kts | 278° |
| 2026-04-23 23:44 | 64.15734 | -22.07006 | 2016 ft | 109 kts | 270° |
| 2026-04-23 23:44 | 64.15741 | -22.08725 | 2197 ft | 106 kts | 270° |
| 2026-04-23 23:45 | 64.15753 | -22.10374 | 2438 ft | 102 kts | 270° |
| 2026-04-23 23:45 | 64.15760 | -22.11993 | 2646 ft | 101 kts | 270° |
| 2026-04-23 23:45 | 64.15768 | -22.13590 | 2883 ft | 100 kts | 271° |
| 2026-04-23 23:45 | 64.15774 | -22.15184 | 3109 ft | 100 kts | 270° |
| 2026-04-23 23:46 | 64.15777 | -22.16780 | 3323 ft | 100 kts | 270° |
| 2026-04-23 23:46 | 64.15962 | -22.18268 | 3542 ft | 103 kts | 316° |
| 2026-04-23 23:46 | 64.16663 | -22.18347 | 3750 ft | 114 kts | 30° |
| 2026-04-23 23:46 | 64.16942 | -22.16734 | 3936 ft | 118 kts | 103° |
| 2026-04-23 23:47 | 64.16658 | -22.14993 | 4157 ft | 117 kts | 104° |
| 2026-04-23 23:47 | 64.16466 | -22.13184 | 4386 ft | 117 kts | 105° |
| 2026-04-23 23:47 | 64.16267 | -22.11371 | 4611 ft | 117 kts | 105° |
| 2026-04-23 23:47 | 64.16066 | -22.09552 | 4824 ft | 118 kts | 105° |
| 2026-04-23 23:48 | 64.15852 | -22.07744 | 5034 ft | 118 kts | 106° |
| 2026-04-23 23:48 | 64.15601 | -22.05788 | 5021 ft | 135 kts | 110° |
| 2026-04-23 23:48 | 64.15251 | -22.03760 | 5021 ft | 141 kts | 113° |
| 2026-04-23 23:48 | 64.14850 | -22.01679 | 5020 ft | 142 kts | 126° |
| 2026-04-23 23:49 | 64.13247 | -22.01554 | 5015 ft | 130 kts | 239° |
| 2026-04-23 23:49 | 64.13202 | -22.03523 | 5018 ft | 130 kts | 294° |
| 2026-04-23 23:49 | 64.13690 | -22.05258 | 5018 ft | 132 kts | 302° |
| 2026-04-23 23:50 | 64.14190 | -22.07021 | 5018 ft | 132 kts | 301° |
| 2026-04-23 23:50 | 64.14693 | -22.08789 | 5019 ft | 132 kts | 301° |
| 2026-04-23 23:50 | 64.15196 | -22.10557 | 5019 ft | 132 kts | 301° |
| 2026-04-23 23:50 | 64.15701 | -22.12325 | 5019 ft | 132 kts | 301° |
| 2026-04-23 23:51 | 64.16308 | -22.13877 | 5013 ft | 134 kts | 330° |
| 2026-04-23 23:51 | 64.17232 | -22.13804 | 5004 ft | 142 kts | 26° |
| 2026-04-23 23:51 | 64.17752 | -22.12013 | 4998 ft | 139 kts | 84° |
| 2026-04-23 23:51 | 64.17470 | -22.09999 | 5002 ft | 132 kts | 123° |
| 2026-04-23 23:52 | 64.17017 | -22.08194 | 5001 ft | 130 kts | 121° |
| 2026-04-23 23:52 | 64.16574 | -22.06386 | 5000 ft | 129 kts | 121° |
| 2026-04-23 23:52 | 64.16134 | -22.04592 | 5000 ft | 129 kts | 121° |
| 2026-04-23 23:52 | 64.15696 | -22.02819 | 5000 ft | 129 kts | 121° |
| 2026-04-23 23:53 | 64.15152 | -22.01260 | 5001 ft | 124 kts | 155° |
| 2026-04-23 23:53 | 64.14367 | -22.01376 | 5002 ft | 115 kts | 221° |
| 2026-04-23 23:53 | 64.14140 | -22.02983 | 5000 ft | 112 kts | 286° |
| 2026-04-23 23:53 | 64.14549 | -22.04487 | 5009 ft | 113 kts | 302° |
| 2026-04-23 23:54 | 64.14983 | -22.05995 | 5014 ft | 113 kts | 301° |
| 2026-04-23 23:54 | 64.15416 | -22.07505 | 5017 ft | 113 kts | 301° |
| 2026-04-23 23:54 | 64.15851 | -22.09015 | 5019 ft | 113 kts | 301° |
| 2026-04-23 23:54 | 64.16288 | -22.10531 | 5019 ft | 114 kts | 301° |
| 2026-04-23 23:55 | 64.16726 | -22.12045 | 5020 ft | 114 kts | 302° |
| 2026-04-23 23:55 | 64.17351 | -22.12967 | 5010 ft | 120 kts | 353° |
| 2026-04-23 23:55 | 64.18066 | -22.12036 | 5000 ft | 127 kts | 59° |
| 2026-04-23 23:55 | 64.18056 | -22.10086 | 5003 ft | 127 kts | 119° |
| 2026-04-23 23:56 | 64.17608 | -22.08341 | 5011 ft | 127 kts | 121° |
| 2026-04-23 23:56 | 64.16999 | -22.06943 | 5012 ft | 124 kts | 146° |
| 2026-04-23 23:56 | 64.16344 | -22.05622 | 5016 ft | 126 kts | 140° |
| 2026-04-23 23:56 | 64.15705 | -22.04277 | 5019 ft | 126 kts | 140° |
| 2026-04-23 23:57 | 64.15056 | -22.02915 | 5019 ft | 126 kts | 140° |
| 2026-04-23 23:57 | 64.14300 | -22.02120 | 5008 ft | 120 kts | 188° |
| 2026-04-23 23:57 | 64.13697 | -22.03185 | 5002 ft | 113 kts | 253° |
| 2026-04-23 23:57 | 64.13884 | -22.04850 | 5005 ft | 113 kts | 303° |
| 2026-04-23 23:58 | 64.14329 | -22.06337 | 5013 ft | 113 kts | 301° |
| 2026-04-23 23:58 | 64.14764 | -22.07855 | 5017 ft | 114 kts | 301° |
| 2026-04-23 23:58 | 64.15197 | -22.09365 | 5018 ft | 115 kts | 301° |
| 2026-04-23 23:58 | 64.15637 | -22.10897 | 5019 ft | 115 kts | 301° |
| 2026-04-23 23:59 | 64.16081 | -22.12430 | 5019 ft | 115 kts | 304° |
| 2026-04-23 23:59 | 64.16789 | -22.13247 | 5013 ft | 120 kts | 349° |
| 2026-04-23 23:59 | 64.17630 | -22.13483 | 4869 ft | 117 kts | 348° |
| 2026-04-23 23:59 | 64.18414 | -22.13727 | 4712 ft | 111 kts | 348° |
| 2026-04-24 00:00 | 64.19169 | -22.13950 | 4553 ft | 107 kts | 348° |
| 2026-04-24 00:00 | 64.19896 | -22.14165 | 4392 ft | 103 kts | 348° |
| 2026-04-24 00:00 | 64.20592 | -22.14368 | 4235 ft | 101 kts | 348° |
| 2026-04-24 00:00 | 64.21285 | -22.14567 | 4078 ft | 99 kts | 348° |
| 2026-04-24 00:01 | 64.21960 | -22.14761 | 3920 ft | 97 kts | 348° |
| 2026-04-24 00:01 | 64.22629 | -22.14957 | 3764 ft | 96 kts | 348° |
| 2026-04-24 00:01 | 64.23284 | -22.15141 | 3612 ft | 94 kts | 348° |
| 2026-04-24 00:01 | 64.23939 | -22.15329 | 3457 ft | 94 kts | 348° |
| 2026-04-24 00:02 | 64.24561 | -22.15504 | 3313 ft | 92 kts | 348° |
| 2026-04-24 00:02 | 64.25182 | -22.15681 | 3291 ft | 85 kts | 347° |
| 2026-04-24 00:02 | 64.25846 | -22.15883 | 3428 ft | 103 kts | 348° |
| 2026-04-24 00:02 | 64.26608 | -22.16125 | 3510 ft | 119 kts | 348° |
| 2026-04-24 00:03 | 64.27459 | -22.16423 | 3513 ft | 130 kts | 348° |
| 2026-04-24 00:03 | 64.28381 | -22.16586 | 3512 ft | 137 kts | 7° |
| 2026-04-24 00:03 | 64.29144 | -22.15420 | 3509 ft | 128 kts | 44° |
| 2026-04-24 00:03 | 64.29749 | -22.13991 | 3501 ft | 121 kts | 42° |
| 2026-04-24 00:04 | 64.30336 | -22.12629 | 3490 ft | 119 kts | 43° |
| 2026-04-24 00:04 | 64.30889 | -22.11248 | 3487 ft | 117 kts | 49° |
| 2026-04-24 00:04 | 64.31394 | -22.09802 | 3490 ft | 115 kts | 47° |
| 2026-04-24 00:04 | 64.31898 | -22.08361 | 3482 ft | 117 kts | 49° |
| 2026-04-24 00:05 | 64.32429 | -22.06872 | 3365 ft | 125 kts | 48° |
| 2026-04-24 00:05 | 64.32871 | -22.05147 | 3244 ft | 128 kts | 71° |
| 2026-04-24 00:05 | 64.33124 | -22.03168 | 3124 ft | 128 kts | 73° |
| 2026-04-24 00:05 | 64.33368 | -22.01180 | 3005 ft | 129 kts | 73° |
| 2026-04-24 00:06 | 64.33564 | -21.99161 | 2877 ft | 129 kts | 91° |
| 2026-04-24 00:06 | 64.33138 | -21.97509 | 2799 ft | 122 kts | 155° |
| 2026-04-24 00:06 | 64.32346 | -21.97354 | 2793 ft | 112 kts | 184° |
| 2026-04-24 00:06 | 64.31646 | -21.97777 | 2801 ft | 101 kts | 233° |
| 2026-04-24 00:07 | 64.31059 | -21.98448 | 2808 ft | 105 kts | 166° |
| 2026-04-24 00:07 | 64.30452 | -21.97462 | 2807 ft | 109 kts | 159° |
| 2026-04-24 00:07 | 64.29716 | -21.97129 | 2809 ft | 112 kts | 175° |
| 2026-04-24 00:07 | 64.28933 | -21.96892 | 2805 ft | 115 kts | 179° |
| 2026-04-24 00:08 | 64.28128 | -21.96687 | 2812 ft | 116 kts | 178° |
| 2026-04-24 00:08 | 64.27317 | -21.96542 | 2810 ft | 117 kts | 180° |
| 2026-04-24 00:08 | 64.26504 | -21.96400 | 2809 ft | 117 kts | 180° |
| 2026-04-24 00:08 | 64.25691 | -21.96250 | 2806 ft | 117 kts | 179° |
| 2026-04-24 00:09 | 64.24888 | -21.96097 | 2799 ft | 117 kts | 179° |
| 2026-04-24 00:09 | 64.24065 | -21.95923 | 2738 ft | 123 kts | 178° |
| 2026-04-24 00:09 | 64.23186 | -21.95668 | 2528 ft | 124 kts | 176° |
| 2026-04-24 00:09 | 64.22322 | -21.95504 | 2225 ft | 124 kts | 177° |
| 2026-04-24 00:10 | 64.21469 | -21.95277 | 1919 ft | 123 kts | 177° |
| 2026-04-24 00:10 | 64.20629 | -21.95089 | 1702 ft | 118 kts | 179° |
| 2026-04-24 00:10 | 64.19824 | -21.94921 | 1475 ft | 114 kts | 179° |
| 2026-04-24 00:10 | 64.19045 | -21.94824 | 1295 ft | 110 kts | 179° |
| 2026-04-24 00:11 | 64.18284 | -21.94658 | 1095 ft | 109 kts | 179° |
| 2026-04-24 00:11 | 64.17538 | -21.94571 | 916 ft | 107 kts | 180° |
| 2026-04-24 00:11 | 64.16819 | -21.94450 | 788 ft | 102 kts | 181° |
| 2026-04-24 00:11 | 64.16109 | -21.94331 | 641 ft | 103 kts | 180° |
| 2026-04-24 00:12 | 64.15365 | -21.94195 | 454 ft | 109 kts | 177° |
| 2026-04-24 00:12 | 64.14694 | -21.94073 | 345 ft | 89 kts | 181° |
| 2026-04-24 00:12 | 64.14093 | -21.93957 | 200 ft | 88 kts | 182° |
| 2026-04-24 00:12 | 64.13498 | -21.93863 | 60 ft | 83 kts | 179° |
| 2026-04-24 00:13 | 64.12972 | -21.93765 | 48 ft | 68 kts | 180° |
| 2026-04-24 00:13 | 64.12580 | -21.93737 | 46 ft | 32 kts | 166° |